createdAt,value
2024-01-24T00:00:12.140Z,36.33
2024-01-24T00:03:14.792Z,35.60
2024-01-24T00:06:17.469Z,32.30
2024-01-24T00:09:20.062Z,32.57
2024-01-24T00:12:22.760Z,30.85
2024-01-24T00:15:25.912Z,31.10
2024-01-24T00:18:29.126Z,31.88
2024-01-24T00:21:31.888Z,30.15
2024-01-24T00:24:34.574Z,31.50
2024-01-24T00:27:37.260Z,30.02
2024-01-24T00:30:40.064Z,31.27
2024-01-24T00:33:42.753Z,29.23
2024-01-24T00:36:45.417Z,28.25
2024-01-24T00:39:49.052Z,29.33
2024-01-24T00:42:51.757Z,28.40
2024-01-24T00:45:55.139Z,29.50
2024-01-24T00:48:57.796Z,29.25
2024-01-24T00:52:00.881Z,29.02
2024-01-24T00:55:04.012Z,30.05
2024-01-24T00:58:06.584Z,30.08
2024-01-24T01:01:10.245Z,29.70
2024-01-24T01:04:13.090Z,29.10
2024-01-24T01:07:16.151Z,30.23
2024-01-24T01:10:18.967Z,30.70
2024-01-24T01:13:21.541Z,30.15
2024-01-24T01:16:24.194Z,31.00
2024-01-24T01:19:26.840Z,31.42
2024-01-24T01:22:29.522Z,32.63
2024-01-24T01:25:32.195Z,31.05
2024-01-24T01:28:34.809Z,30.02
2024-01-24T01:31:37.525Z,29.87
2024-01-24T01:34:40.478Z,29.90
2024-01-24T01:37:43.688Z,30.52
2024-01-24T01:40:46.189Z,29.10
2024-01-24T01:43:48.705Z,28.58
2024-01-24T01:46:52.729Z,30.77
2024-01-24T01:49:55.656Z,29.35
2024-01-24T01:52:59.875Z,28.08
2024-01-24T01:56:02.530Z,30.73
2024-01-24T01:59:06.691Z,29.65
2024-01-24T02:02:11.405Z,29.07
2024-01-24T02:05:16.187Z,28.88
2024-01-24T02:08:18.782Z,28.10
2024-01-24T02:11:22.274Z,29.20
2024-01-24T02:14:25.588Z,27.48
2024-01-24T02:17:28.084Z,28.88
2024-01-24T02:20:33.042Z,27.27
2024-01-24T02:23:36.864Z,28.27
2024-01-24T02:26:40.246Z,27.98
2024-01-24T02:29:43.882Z,26.05
2024-01-24T02:32:47.020Z,25.97
2024-01-24T02:35:50.190Z,27.55
2024-01-24T02:38:54.894Z,27.60
2024-01-24T02:41:58.927Z,27.30
2024-01-24T02:45:01.436Z,25.75
2024-01-24T02:48:04.471Z,25.67
2024-01-24T02:51:07.067Z,25.92
2024-01-24T02:54:09.611Z,25.60
2024-01-24T02:57:12.216Z,28.17
2024-01-24T03:00:15.227Z,26.55
2024-01-24T03:03:17.851Z,26.17
2024-01-24T03:06:21.511Z,27.35
2024-01-24T03:09:24.103Z,27.77
2024-01-24T03:12:26.636Z,28.30
2024-01-24T03:15:29.142Z,27.30
2024-01-24T03:18:31.747Z,28.85
2024-01-24T03:21:34.377Z,27.73
2024-01-24T03:24:37.219Z,27.35
2024-01-24T03:27:40.039Z,28.60
2024-01-24T03:30:42.941Z,28.85
2024-01-24T03:33:45.678Z,29.13
2024-01-24T03:36:48.843Z,28.15
2024-01-24T03:39:51.466Z,28.75
2024-01-24T03:42:54.372Z,29.07
2024-01-24T03:45:57.143Z,28.52
2024-01-24T03:48:59.824Z,30.77
2024-01-24T03:52:04.301Z,29.42
2024-01-24T03:55:07.215Z,30.10
2024-01-24T03:58:09.680Z,30.77
2024-01-24T04:01:12.344Z,30.35
2024-01-24T04:04:15.069Z,31.10
2024-01-24T04:07:17.813Z,34.10
2024-01-24T04:10:21.858Z,34.25
2024-01-24T04:13:25.552Z,36.23
2024-01-24T04:16:28.407Z,38.40
2024-01-24T04:19:31.392Z,37.92
2024-01-24T04:22:34.163Z,37.65
2024-01-24T04:25:36.714Z,36.22
2024-01-24T04:28:39.194Z,34.92
2024-01-24T04:31:43.568Z,36.05
2024-01-24T04:34:46.301Z,35.57
2024-01-24T04:37:48.943Z,35.30
2024-01-24T04:40:51.510Z,34.97
2024-01-24T04:43:54.058Z,34.70
2024-01-24T04:46:56.663Z,34.97
2024-01-24T04:49:59.423Z,35.70
2024-01-24T04:53:02.108Z,33.92
2024-01-24T04:56:04.895Z,35.10
2024-01-24T04:59:07.391Z,34.20
2024-01-24T05:02:10.186Z,33.22
2024-01-24T05:05:12.962Z,32.20
2024-01-24T05:08:18.043Z,32.95
2024-01-24T05:11:20.583Z,33.10
2024-01-24T05:14:23.061Z,33.40
2024-01-24T05:17:25.547Z,33.90
2024-01-24T05:20:27.987Z,31.35
2024-01-24T05:23:33.377Z,33.58
2024-01-24T05:26:37.580Z,34.70
2024-01-24T05:29:40.624Z,36.15
2024-01-24T05:32:43.235Z,33.92
2024-01-24T05:35:47.011Z,32.50
2024-01-24T05:38:49.470Z,34.05
2024-01-24T05:41:52.090Z,34.15
2024-01-24T05:44:54.619Z,34.10
2024-01-24T05:47:57.425Z,33.30
2024-01-24T05:51:00.379Z,31.80
2024-01-24T05:54:02.887Z,35.08
2024-01-24T05:57:05.683Z,34.83
2024-01-24T06:00:11.137Z,33.55
2024-01-24T06:03:15.398Z,37.25
2024-01-24T06:06:20.377Z,36.73
2024-01-24T06:09:23.429Z,34.75
2024-01-24T06:12:25.967Z,38.33
2024-01-24T06:15:32.761Z,36.27
2024-01-24T06:18:36.049Z,40.08
2024-01-24T06:21:38.834Z,40.22
2024-01-24T06:24:41.427Z,39.70
2024-01-24T06:27:46.420Z,36.65
2024-01-24T06:30:49.354Z,37.20
2024-01-24T06:33:52.640Z,38.17
2024-01-24T06:36:55.562Z,37.17
2024-01-24T06:39:58.881Z,39.00
2024-01-24T06:43:01.770Z,37.85
2024-01-24T06:46:06.265Z,36.33
2024-01-24T06:49:11.134Z,35.10
2024-01-24T06:52:14.103Z,37.75
2024-01-24T06:55:18.682Z,37.72
2024-01-24T06:58:21.639Z,35.65
2024-01-24T07:01:24.284Z,34.80
2024-01-24T07:04:27.335Z,33.47
2024-01-24T07:07:31.854Z,34.20
2024-01-24T07:10:35.977Z,35.40
2024-01-24T07:13:39.365Z,36.33
2024-01-24T07:16:45.746Z,33.63
2024-01-24T07:19:49.115Z,32.47
2024-01-24T07:22:52.146Z,30.60
2024-01-24T07:25:56.473Z,32.85
2024-01-24T07:29:00.250Z,32.30
2024-01-24T07:32:05.402Z,29.05
2024-01-24T07:35:12.880Z,28.17
2024-01-24T07:38:16.207Z,30.00
2024-01-24T07:41:19.094Z,31.42
2024-01-24T07:44:21.885Z,31.05
2024-01-24T07:47:27.453Z,31.17
2024-01-24T07:50:34.839Z,31.15
2024-01-24T07:53:39.813Z,31.58
2024-01-24T07:56:47.059Z,30.48
2024-01-24T07:59:49.860Z,31.85
2024-01-24T08:02:53.329Z,31.90
2024-01-24T08:05:56.178Z,28.90
2024-01-24T08:08:58.929Z,29.70
2024-01-24T08:12:02.354Z,28.27
2024-01-24T08:15:08.157Z,28.60
2024-01-24T08:18:12.384Z,28.03
2024-01-24T08:21:16.428Z,27.65
2024-01-24T08:24:19.484Z,26.38
2024-01-24T08:27:22.347Z,27.63
2024-01-24T08:30:25.134Z,27.88
2024-01-24T08:33:28.403Z,27.58
2024-01-24T08:36:32.934Z,28.67
2024-01-24T08:39:35.961Z,25.90
2024-01-24T08:42:39.230Z,27.70
2024-01-24T08:45:41.941Z,26.17
2024-01-24T08:48:45.135Z,26.10
2024-01-24T08:51:47.878Z,25.35
2024-01-24T08:54:52.432Z,27.67
2024-01-24T08:57:55.803Z,33.42
2024-01-24T09:00:59.086Z,33.65
2024-01-24T09:04:03.546Z,31.75
2024-01-24T09:07:08.084Z,31.58
2024-01-24T09:10:11.172Z,28.10
2024-01-24T09:13:14.380Z,25.63
2024-01-24T09:16:17.403Z,26.00
2024-01-24T09:19:22.243Z,23.17
2024-01-24T09:22:25.256Z,24.35
2024-01-24T09:25:29.081Z,25.13
2024-01-24T09:28:32.191Z,24.42
2024-01-24T09:31:35.091Z,24.92
2024-01-24T09:34:39.439Z,31.08
2024-01-24T09:37:42.599Z,32.08
2024-01-24T09:40:45.468Z,29.60
2024-01-24T09:43:49.221Z,25.60
2024-01-24T09:46:55.159Z,26.08
2024-01-24T09:50:00.633Z,25.50
2024-01-24T09:53:08.900Z,21.88
2024-01-24T09:56:13.160Z,21.83
2024-01-24T09:59:15.890Z,22.02
2024-01-24T10:02:19.054Z,21.67
2024-01-24T10:05:30.386Z,21.88
2024-01-24T10:08:33.793Z,20.52
2024-01-24T10:11:37.392Z,19.70
2024-01-24T10:14:42.417Z,18.67
2024-01-24T10:17:45.726Z,18.98
2024-01-24T10:20:53.118Z,18.67
2024-01-24T10:23:59.212Z,20.35
2024-01-24T10:27:03.511Z,20.08
2024-01-24T10:30:14.268Z,19.17
2024-01-24T10:33:19.663Z,19.35
2024-01-24T10:36:27.724Z,20.17
2024-01-24T10:39:36.093Z,20.30
2024-01-24T10:42:41.875Z,20.67
2024-01-24T10:45:45.954Z,19.90
2024-01-24T10:48:49.781Z,19.80
2024-01-24T10:51:53.897Z,21.47
2024-01-24T10:55:05.345Z,19.95
2024-01-24T10:58:12.966Z,20.80
2024-01-24T11:01:16.128Z,20.33
2024-01-24T11:04:24.494Z,20.77
2024-01-24T11:07:33.938Z,21.80
2024-01-24T11:10:41.896Z,20.83
2024-01-24T11:13:46.049Z,21.97
2024-01-24T11:16:48.787Z,21.35
2024-01-24T11:19:52.175Z,21.98
2024-01-24T11:22:55.144Z,20.83
2024-01-24T11:25:58.212Z,20.20
2024-01-24T11:29:16.765Z,19.90
2024-01-24T11:33:01.656Z,20.90
2024-01-24T11:36:12.809Z,20.48
2024-01-24T11:39:49.185Z,22.67
2024-01-24T11:42:58.340Z,21.45
2024-01-24T11:46:06.164Z,21.80
2024-01-24T11:49:09.748Z,23.10
2024-01-24T11:52:12.951Z,22.45
2024-01-24T11:55:18.502Z,26.30
2024-01-24T11:58:28.407Z,26.17
2024-01-24T12:01:31.313Z,27.20
2024-01-24T12:04:34.239Z,27.70
2024-01-24T12:07:37.940Z,28.77
2024-01-24T12:10:41.320Z,28.63
2024-01-24T12:13:44.757Z,28.42
2024-01-24T12:16:48.620Z,26.17
2024-01-24T12:19:51.527Z,27.13
2024-01-24T12:22:56.595Z,28.60
2024-01-24T12:26:00.560Z,31.73
2024-01-24T12:29:06.720Z,28.67
2024-01-24T12:32:10.325Z,29.73
2024-01-24T12:35:16.954Z,30.75
2024-01-24T12:38:20.086Z,34.40
2024-01-24T12:41:24.372Z,32.58
2024-01-24T12:44:27.585Z,27.55
2024-01-24T12:47:30.461Z,25.53
2024-01-24T12:50:34.400Z,26.83
2024-01-24T12:53:37.228Z,26.98
2024-01-24T12:56:39.912Z,26.70
2024-01-24T12:59:43.315Z,26.20
2024-01-24T13:02:47.068Z,25.63
2024-01-24T13:05:51.490Z,26.58
2024-01-24T13:08:55.492Z,29.55
2024-01-24T13:11:58.579Z,32.72
2024-01-24T13:15:01.525Z,33.95
2024-01-24T13:18:07.002Z,33.50
2024-01-24T13:21:10.769Z,28.65
2024-01-24T13:24:13.767Z,22.58
2024-01-24T13:27:19.481Z,18.70
2024-01-24T13:30:22.307Z,18.95
2024-01-24T13:33:25.418Z,18.20
2024-01-24T13:36:28.392Z,16.33
2024-01-24T13:39:32.057Z,17.67
2024-01-24T13:42:34.890Z,16.23
2024-01-24T13:45:40.923Z,17.30
2024-01-24T13:48:45.258Z,15.87
2024-01-24T13:51:50.153Z,17.23
2024-01-24T13:54:53.367Z,17.17
2024-01-24T13:58:00.528Z,17.03
2024-01-24T14:01:04.943Z,17.27
2024-01-24T14:04:07.803Z,20.17
2024-01-24T14:07:10.728Z,20.33
2024-01-24T14:10:14.005Z,21.92
2024-01-24T14:13:17.581Z,22.60
2024-01-24T14:16:20.513Z,24.70
2024-01-24T14:19:25.201Z,24.53
2024-01-24T14:22:28.982Z,23.83
2024-01-24T14:25:32.056Z,23.77
2024-01-24T14:28:35.229Z,24.47
2024-01-24T14:31:39.211Z,21.15
2024-01-24T14:34:44.040Z,20.85
2024-01-24T14:37:47.676Z,20.13
2024-01-24T14:40:50.858Z,19.42
2024-01-24T14:43:54.023Z,21.65
2024-01-24T14:46:56.764Z,23.05
2024-01-24T14:49:59.813Z,20.73
2024-01-24T14:53:02.742Z,20.88
2024-01-24T14:56:06.396Z,21.42
2024-01-24T14:59:09.485Z,25.50
2024-01-24T15:02:12.207Z,28.65
2024-01-24T15:05:15.053Z,31.73
2024-01-24T15:08:18.876Z,32.05
2024-01-24T15:11:21.624Z,38.35
2024-01-24T15:14:25.212Z,31.30
2024-01-24T15:17:28.875Z,27.13
2024-01-24T15:20:31.873Z,24.47
2024-01-24T15:23:35.252Z,26.50
2024-01-24T15:26:39.561Z,25.85
2024-01-24T15:29:42.430Z,25.77
2024-01-24T15:32:46.170Z,24.08
2024-01-24T15:35:51.209Z,22.55
2024-01-24T15:38:56.125Z,21.92
2024-01-24T15:42:03.683Z,18.63
2024-01-24T15:45:06.654Z,22.27
2024-01-24T15:48:09.394Z,21.60
2024-01-24T15:51:12.302Z,27.70
2024-01-24T15:54:15.174Z,26.63
2024-01-24T15:57:17.931Z,26.05
2024-01-24T16:00:21.253Z,23.77
2024-01-24T16:03:27.493Z,18.92
2024-01-24T16:06:30.702Z,17.15
2024-01-24T16:09:34.046Z,17.25
2024-01-24T16:12:37.188Z,16.38
2024-01-24T16:15:39.816Z,16.13
2024-01-24T16:18:44.553Z,16.77
2024-01-24T16:21:49.862Z,16.53
2024-01-24T16:24:52.637Z,17.67
2024-01-24T16:27:56.443Z,16.20
2024-01-24T16:30:59.437Z,22.00
2024-01-24T16:34:02.165Z,34.65
2024-01-24T16:37:05.143Z,46.22
2024-01-24T16:40:09.516Z,43.80
2024-01-24T16:43:12.400Z,36.08
2024-01-24T16:46:15.562Z,32.13
2024-01-24T16:49:18.230Z,30.85
2024-01-24T16:52:24.248Z,28.63
2024-01-24T16:55:28.196Z,32.45
2024-01-24T16:58:31.428Z,22.63
2024-01-24T17:01:34.442Z,22.03
2024-01-24T17:04:38.502Z,18.75
2024-01-24T17:07:41.310Z,18.63
2024-01-24T17:10:44.253Z,18.27
2024-01-24T17:13:47.414Z,18.38
2024-01-24T17:16:50.185Z,17.02
2024-01-24T17:19:52.935Z,18.38
2024-01-24T17:22:57.986Z,19.90
2024-01-24T17:26:01.058Z,25.13
2024-01-24T17:29:03.932Z,26.15
2024-01-24T17:32:07.364Z,28.80
2024-01-24T17:35:10.283Z,28.88
2024-01-24T17:38:13.266Z,25.15
2024-01-24T17:41:16.275Z,22.20
2024-01-24T17:44:19.953Z,21.45
2024-01-24T17:47:24.310Z,21.38
2024-01-24T17:50:27.570Z,21.23
2024-01-24T17:53:30.121Z,19.60
2024-01-24T17:56:34.324Z,19.48
2024-01-24T17:59:37.441Z,19.23
2024-01-24T18:02:40.447Z,19.83
2024-01-24T18:05:43.112Z,18.35
2024-01-24T18:08:46.550Z,34.88
2024-01-24T18:11:49.824Z,51.97
2024-01-24T18:14:53.467Z,42.42
2024-01-24T18:17:56.590Z,39.58
2024-01-24T18:20:59.587Z,35.70
2024-01-24T18:24:04.879Z,33.27
2024-01-24T18:27:07.651Z,36.05
2024-01-24T18:30:10.785Z,43.80
2024-01-24T18:33:15.979Z,44.13
2024-01-24T18:36:20.162Z,39.35
2024-01-24T18:39:22.989Z,37.58
2024-01-24T18:42:25.994Z,38.50
2024-01-24T18:45:29.021Z,38.65
2024-01-24T18:48:31.938Z,32.90
2024-01-24T18:51:34.697Z,30.73
2024-01-24T18:54:37.507Z,29.57
2024-01-24T18:57:43.928Z,28.75
2024-01-24T19:00:47.199Z,28.60
2024-01-24T19:03:56.165Z,28.27
2024-01-24T19:07:01.388Z,26.17
2024-01-24T19:10:04.741Z,30.52
2024-01-24T19:13:07.891Z,35.00
2024-01-24T19:16:11.690Z,38.75
2024-01-24T19:19:16.303Z,39.00
2024-01-24T19:22:19.180Z,38.45
2024-01-24T19:25:22.528Z,37.40
2024-01-24T19:28:25.090Z,34.20
2024-01-24T19:31:27.745Z,34.28
2024-01-24T19:34:30.393Z,34.70
2024-01-24T19:37:34.173Z,34.63
2024-01-24T19:40:36.805Z,39.30
2024-01-24T19:43:40.076Z,43.47
2024-01-24T19:46:44.585Z,48.38
2024-01-24T19:49:47.411Z,49.17
2024-01-24T19:52:52.300Z,34.20
2024-01-24T19:56:00.408Z,34.77
2024-01-24T19:59:05.006Z,27.15
2024-01-24T20:02:07.617Z,22.95
2024-01-24T20:05:10.193Z,23.93
2024-01-24T20:08:12.738Z,22.63
2024-01-24T20:11:15.880Z,23.17
2024-01-24T20:14:18.812Z,22.88
2024-01-24T20:17:23.841Z,22.05
2024-01-24T20:20:26.708Z,21.85
2024-01-24T20:23:31.202Z,23.95
2024-01-24T20:26:35.941Z,25.37
2024-01-24T20:29:38.826Z,26.55
2024-01-24T20:32:45.698Z,36.10
2024-01-24T20:36:00.436Z,35.30
2024-01-24T20:39:03.592Z,33.67
2024-01-24T20:42:11.079Z,31.35
2024-01-24T20:45:16.873Z,32.95
2024-01-24T20:48:19.870Z,44.20
2024-01-24T20:51:22.736Z,40.53
2024-01-24T20:54:25.433Z,34.90
2024-01-24T20:57:30.216Z,36.33
2024-01-24T21:00:33.587Z,37.30
2024-01-24T21:03:36.698Z,36.50
2024-01-24T21:06:40.745Z,37.30
2024-01-24T21:09:44.519Z,37.55
2024-01-24T21:12:47.318Z,35.55
2024-01-24T21:15:50.843Z,38.70
2024-01-24T21:18:53.480Z,36.53
2024-01-24T21:21:56.364Z,37.75
2024-01-24T21:24:59.169Z,39.25
2024-01-24T21:28:02.631Z,38.43
2024-01-24T21:31:07.441Z,33.70
2024-01-24T21:34:10.300Z,30.60
2024-01-24T21:37:12.887Z,28.63
2024-01-24T21:40:16.075Z,28.20
2024-01-24T21:43:19.064Z,28.27
2024-01-24T21:46:21.816Z,28.80
2024-01-24T21:49:24.463Z,28.52
2024-01-24T21:52:27.021Z,31.10
2024-01-24T21:55:29.730Z,30.95
2024-01-24T21:58:32.232Z,30.47
2024-01-24T22:01:35.118Z,28.92
2024-01-24T22:04:38.123Z,25.75
2024-01-24T22:07:44.400Z,24.67
2024-01-24T22:10:47.236Z,24.30
2024-01-24T22:13:50.695Z,24.02
2024-01-24T22:16:53.742Z,25.40
2024-01-24T22:19:56.343Z,25.17
2024-01-24T22:22:59.024Z,27.67
2024-01-24T22:26:01.760Z,26.73
2024-01-24T22:29:05.636Z,25.93
2024-01-24T22:32:10.103Z,23.90
2024-01-24T22:35:13.066Z,25.15
2024-01-24T22:38:16.723Z,24.57
2024-01-24T22:41:22.020Z,24.77
2024-01-24T22:44:25.068Z,25.67
2024-01-24T22:47:28.716Z,23.55
2024-01-24T22:50:31.996Z,23.48
2024-01-24T22:53:35.344Z,24.70
2024-01-24T22:56:37.909Z,25.23
2024-01-24T22:59:40.571Z,23.47
2024-01-24T23:02:43.135Z,24.27
2024-01-24T23:05:45.745Z,23.65
2024-01-24T23:08:48.373Z,25.03
2024-01-24T23:11:50.951Z,23.20
2024-01-24T23:14:53.727Z,24.30
2024-01-24T23:17:56.391Z,24.95
2024-01-24T23:21:00.509Z,23.00
2024-01-24T23:24:03.285Z,23.50
2024-01-24T23:27:06.040Z,21.33
2024-01-24T23:30:09.212Z,21.30
2024-01-24T23:33:12.339Z,20.10
2024-01-24T23:36:15.161Z,21.40
2024-01-24T23:39:18.318Z,21.53
2024-01-24T23:42:21.050Z,20.88
2024-01-24T23:45:24.246Z,19.42
2024-01-24T23:48:27.713Z,20.98
2024-01-24T23:51:33.660Z,20.33
2024-01-24T23:54:38.420Z,18.60
2024-01-24T23:57:41.087Z,18.65
